Carrier Princess — CZ3582 — position and weather

sailwx.info

Track history (hours):
 
Tides and Currents Weather Stations Pressure Air Temp Water Temp Dewpoint Dewpoint Depression Visibility Wind Speed Wind Dir Waves Ship Positions

Carrier Princess

Last reported at 2015-Sep-04 13:27 UTC. Time now 2015-Sep-04 14:29 UTC.
Position N 48°41' W 123°24'.

Length 112 m; draft 3 m.

Type: Cargo ship. MMSI: 316003656.

Date/timePositionNaut miles runAvg speedWind from/ knotsBaromVisibWave heightAir tempDewpointWater temp
2015-Sep-04 13:27N 48°41' W 123°24'0 0.3
2015-Sep-04 12:33N 48°41' W 123°24'1110.6
2015-Sep-04 11:33N 48°52' W 123°19'1212.0
2015-Sep-04 10:33N 49°04' W 123°21'1312.9
2015-Sep-04 09:33N 49°09' W 123°03'0 0.4
2015-Sep-04 08:33N 49°09' W 123°02'1 1.0
2015-Sep-04 07:33N 49°08' W 123°03'7 6.9
2015-Sep-04 06:33N 49°08' W 123°14'1212.0
2015-Sep-04 05:33N 49°09' W 123°32'1413.7
2015-Sep-04 04:33N 49°12' W 123°52'3 3.1
2015-Sep-04 03:33N 49°10' W 123°56'0 0.2
2015-Sep-04 02:33N 49°10' W 123°55'1212.0
2015-Sep-04 01:33N 49°12' W 123°37'1313.5
2015-Sep-04 00:33N 49°06' W 123°18'1110.9
2015-Sep-03 23:33N 49°09' W 123°02'0 0.0
2015-Sep-03 22:33N 49°09' W 123°02'5 5.3
2015-Sep-03 21:33N 49°07' W 123°10'8 7.7
2015-Sep-03 20:33N 49°00' W 123°16'1212.5
2015-Sep-03 19:33N 48°48' W 123°20'7 3.5
2015-Sep-03 17:31N 48°41' W 123°24'0 0.0
2015-Sep-03 15:32N 48°41' W 123°24'0 0.0
2015-Sep-03 14:32N 48°41' W 123°24'0 0.0
2015-Sep-03 13:33N 48°41' W 123°24'1 1.1
2015-Sep-03 12:30N 48°42' W 123°23'9 9.0
2015-Sep-03 11:33N 48°50' W 123°21'1110.7
2015-Sep-03 10:33N 49°01' W 123°19'1110.5
2015-Sep-03 09:33N 49°07' W 123°06'3 2.9
2015-Sep-03 08:33N 49°09' W 123°02'3 2.8
2015-Sep-03 07:33N 49°07' W 123°05'1111.3
2015-Sep-03 06:33N 49°07' W 123°23'1414.3
2015-Sep-03 05:33N 49°12' W 123°43'8 8.4
2015-Sep-03 04:33N 49°10' W 123°56'0 0.0
2015-Sep-03 03:33N 49°10' W 123°56'8 7.6
2015-Sep-03 02:33N 49°13' W 123°45'1212.2
2015-Sep-03 01:33N 49°08' W 123°28'1212.3
2015-Sep-03 00:33N 49°07' W 123°09'5 5.0
2015-Sep-02 23:33N 49°09' W 123°02'5 4.9
2015-Sep-02 22:33N 49°06' W 123°09'1110.7
2015-Sep-02 21:33N 49°07' W 123°25'1514.5
2015-Sep-02 20:33N 49°13' W 123°46'7 3.5
2015-Sep-02 18:28N 49°10' W 123°56'1213.5
2015-Sep-02 17:33N 49°11' W 123°37'1616.2
2015-Sep-02 16:33N 49°08' W 123°13'7 7.2
2015-Sep-02 15:33N 49°09' W 123°02'0 0.0
2015-Sep-02 14:33N 49°09' W 123°02'1312.9
2015-Sep-02 13:33N 49°06' W 123°22'1616.1
2015-Sep-02 12:33N 49°12' W 123°45'8 7.3
2015-Sep-02 11:31N 49°10' W 123°56'0 0.0
2015-Sep-02 10:33N 49°10' W 123°56'1111.1
2015-Sep-02 09:33N 49°12' W 123°39'1616.0
2015-Sep-02 08:33N 49°07' W 123°16'9 9.1
2015-Sep-02 07:33N 49°09' W 123°02'0 0.0
2015-Sep-02 06:33N 49°09' W 123°02'1010.2
2015-Sep-02 05:33N 49°07' W 123°17'1515.0
2015-Sep-02 04:33N 48°51' W 123°20'10 3.4
2015-Sep-02 01:33N 48°42' W 123°23'1111.4
2015-Sep-02 00:33N 48°52' W 123°18'1413.6
2015-Sep-01 23:33N 49°06' W 123°19'1111.1
2015-Sep-01 22:33N 49°09' W 123°02'0 0.0
2015-Sep-01 21:33N 49°09' W 123°02'6 6.0
2015-Sep-01 20:33N 49°07' W 123°11'1110.6
2015-Sep-01 19:33N 49°07' W 123°27'1313.2
2015-Sep-01 18:33N 49°13' W 123°45'7 7.4
2015-Sep-01 17:33N 49°10' W 123°56'0 0.0
2015-Sep-01 16:33N 49°10' W 123°56'0 0.0
2015-Sep-01 15:33N 49°10' W 123°56'0 0.0
2015-Sep-01 14:33N 49°10' W 123°56'0 0.0
2015-Sep-01 13:33N 49°10' W 123°56'0 0.0
2015-Sep-01 12:33N 49°10' W 123°56'0 0.0
2015-Sep-01 11:33N 49°10' W 123°56'5 4.9
2015-Sep-01 10:33N 49°13' W 123°50'1111.0
2015-Sep-01 09:33N 49°11' W 123°34'1313.2
2015-Sep-01 08:34N 49°08' W 123°14'8 7.7
2015-Sep-01 07:33N 49°09' W 123°02'0 0.2
2015-Sep-01 06:33N 49°09' W 123°02'9 9.5
2015-Sep-01 05:33N 49°07' W 123°17'1212.3
2015-Sep-01 04:33N 48°55' W 123°18'1110.9
2015-Sep-01 03:33N 48°44' W 123°23'3 2.9
2015-Sep-01 02:32N 48°41' W 123°24'0 0.0
2015-Sep-01 01:33N 48°41' W 123°24'1111.4
2015-Sep-01 00:33N 48°52' W 123°19'1413.8
2015-Aug-31 23:33N 49°06' W 123°20'1211.7
2015-Aug-31 22:33N 49°09' W 123°02'0 0.0
2015-Aug-31 21:33N 49°09' W 123°02'0 0.1
2015-Aug-31 20:33N 49°09' W 123°02'0 0.0
2015-Aug-31 19:33N 49°09' W 123°02'0 0.0
2015-Aug-31 18:33N 49°09' W 123°02'0 0.0
2015-Aug-31 17:33N 49°09' W 123°02'0 0.0
2015-Aug-31 16:33N 49°09' W 123°02'0 0.0
2015-Aug-31 15:33N 49°09' W 123°02'0 0.0
2015-Aug-31 14:33N 49°09' W 123°02'0 0.0
2015-Aug-31 13:33N 49°09' W 123°02'0 0.0
2015-Aug-31 12:33N 49°09' W 123°02'0 0.0
2015-Aug-31 11:33N 49°09' W 123°02'0 0.0
2015-Aug-31 10:33N 49°09' W 123°02'0 0.0
2015-Aug-31 09:33N 49°09' W 123°02'0 0.0
2015-Aug-31 08:33N 49°09' W 123°02'0 0.0
2015-Aug-31 07:33N 49°09' W 123°02'0 0.0
2015-Aug-31 06:33N 49°09' W 123°02'0 0.0
2015-Aug-31 05:33N 49°09' W 123°02'0 0.0
2015-Aug-31 04:33N 49°09' W 123°02'0 0.0
2015-Aug-31 03:33N 49°09' W 123°02'0 0.0
2015-Aug-31 02:33N 49°09' W 123°02'0 0.0
2015-Aug-31 01:33N 49°09' W 123°02'0 0.0
2015-Aug-31 00:33N 49°09' W 123°02'0 0.0
2015-Aug-30 23:33N 49°09' W 123°02'0 0.0
2015-Aug-30 22:33N 49°09' W 123°02'0 0.0
2015-Aug-30 21:28N 49°09' W 123°02'0 0.0
2015-Aug-30 20:33N 49°09' W 123°02'0 0.0
2015-Aug-30 19:30N 49°09' W 123°02'0 0.0
2015-Aug-30 18:03N 49°09' W 123°02'0 0.0
2015-Aug-30 17:32N 49°09' W 123°02'0 0.0
2015-Aug-30 12:12N 49°09' W 123°02'0 0.0
2015-Aug-30 04:25N 49°09' W 123°02'0 0.0
2015-Aug-30 03:13N 49°09' W 123°02'0 0.0
2015-Aug-30 02:15N 49°09' W 123°02'0 0.0
2015-Aug-30 01:32N 49°09' W 123°02'0 0.0
2015-Aug-30 00:32N 49°09' W 123°02'0 0.0
2015-Aug-29 23:32N 49°09' W 123°02'0 0.0
2015-Aug-29 22:33N 49°09' W 123°02'0 0.0
2015-Aug-29 21:31N 49°09' W 123°02'0 0.1
2015-Aug-29 20:23N 49°09' W 123°02'910.6
2015-Aug-29 19:33N 49°07' W 123°15'1313.3
2015-Aug-29 18:33N 49°11' W 123°35'1413.5
2015-Aug-29 17:33N 49°10' W 123°56'0 0.1
2015-Aug-29 16:22N 49°10' W 123°56'0 0.0
2015-Aug-29 15:32N 49°10' W 123°56'0 0.0
2015-Aug-29 14:31N 49°10' W 123°56'0 0.0
2015-Aug-29 13:33N 49°10' W 123°56'0 0.0
2015-Aug-29 12:33N 49°10' W 123°56'0 0.0
2015-Aug-29 11:32N 49°10' W 123°56'6 6.3
2015-Aug-29 10:32N 49°14' W 123°48'1313.2
2015-Aug-29 09:33N 49°08' W 123°30'1413.7
2015-Aug-29 08:33N 49°07' W 123°09'5 5.0
2015-Aug-29 07:33N 49°09' W 123°02'1 0.6
2015-Aug-29 06:33N 49°08' W 123°03'10 9.9
2015-Aug-29 05:33N 49°06' W 123°18'1211.6
2015-Aug-29 04:33N 48°55' W 123°18'1211.5
2015-Aug-29 03:33N 48°44' W 123°23'3 2.6
2015-Aug-29 02:33N 48°41' W 123°24'1 1.3
2015-Aug-29 01:30N 48°42' W 123°22'1011.0
2015-Aug-29 00:33N 48°52' W 123°19'1312.7
2015-Aug-28 23:33N 49°05' W 123°20'1211.6
2015-Aug-28 22:33N 49°09' W 123°03'1 0.5
2015-Aug-28 21:33N 49°09' W 123°02'4 4.0
2015-Aug-28 20:33N 49°07' W 123°07'1211.7
2015-Aug-28 19:33N 49°07' W 123°25'1212.4
2015-Aug-28 18:33N 49°12' W 123°43'9 8.0
2015-Aug-28 17:29N 49°10' W 123°56'0 0.0
2015-Aug-28 16:29N 49°10' W 123°56'0 0.0
2015-Aug-28 15:33N 49°10' W 123°56'0 0.0
2015-Aug-28 14:33N 49°10' W 123°56'0 0.0
2015-Aug-28 13:30N 49°10' W 123°56'0 0.0
2015-Aug-28 12:32N 49°10' W 123°56'0 0.0
2015-Aug-28 11:33N 49°10' W 123°56'5 5.3
2015-Aug-28 10:33N 49°13' W 123°50'1212.4
2015-Aug-28 09:33N 49°10' W 123°32'1212.2
2015-Aug-28 08:34N 49°08' W 123°13'7 7.3
2015-Aug-28 07:33N 49°09' W 123°02'0 0.3
2015-Aug-28 06:33N 49°09' W 123°02'1010.2
2015-Aug-28 05:33N 49°06' W 123°18'1413.7
2015-Aug-28 04:33N 48°53' W 123°18'1211.6
2015-Aug-28 03:31N 48°41' W 123°24'1 0.6
2015-Aug-28 01:31N 48°42' W 123°23'1313.6
2015-Aug-28 00:33N 48°54' W 123°18'1212.1
2015-Aug-27 23:33N 49°07' W 123°17'1010.2
2015-Aug-27 22:33N 49°09' W 123°02'0 0.0
2015-Aug-27 21:33N 49°09' W 123°02'5 4.9
2015-Aug-27 20:33N 49°06' W 123°09'1212.0
2015-Aug-27 19:33N 49°09' W 123°27'1212.5
2015-Aug-27 18:34N 49°13' W 123°45'8 8.1
2015-Aug-27 17:33N 49°10' W 123°56'0 0.0
2015-Aug-27 16:33N 49°10' W 123°56'0 0.0
2015-Aug-27 15:34N 49°10' W 123°56'0 0.0
2015-Aug-27 14:33N 49°10' W 123°56'0 0.0
2015-Aug-27 13:32N 49°10' W 123°56'0 0.0
2015-Aug-27 12:34N 49°10' W 123°56'0 0.0
2015-Aug-27 11:33N 49°10' W 123°56'6 6.5
2015-Aug-27 10:33N 49°14' W 123°48'1312.7
2015-Aug-27 09:33N 49°09' W 123°29'1212.3
2015-Aug-27 08:34N 49°07' W 123°11'6 6.0
2015-Aug-27 07:33N 49°09' W 123°02'0 0.0
2015-Aug-27 06:34N 49°09' W 123°02'9 9.3
2015-Aug-27 05:33N 49°07' W 123°16'1413.7
2015-Aug-27 04:33N 48°54' W 123°18'1312.7
2015-Aug-27 03:34N 48°42' W 123°24'1 0.3
2015-Aug-27 01:33N 48°42' W 123°24'1211.9
2015-Aug-27 00:33N 48°53' W 123°18'1313.0
2015-Aug-26 23:33N 49°06' W 123°19'1111.2
2015-Aug-26 22:33N 49°09' W 123°02'0 0.1
2015-Aug-26 21:33N 49°09' W 123°02'0 0.0
2015-Aug-26 20:33N 49°09' W 123°02'8 7.5
2015-Aug-26 19:33N 49°08' W 123°13'1413.9
2015-Aug-26 18:34N 49°09' W 123°35'1413.7
2015-Aug-26 17:33N 49°10' W 123°55'0 0.1
2015-Aug-26 16:24N 49°10' W 123°56'0 0.0
2015-Aug-26 15:28N 49°10' W 123°56'0 0.0
2015-Aug-26 14:33N 49°10' W 123°56'0 0.0
2015-Aug-26 13:24N 49°10' W 123°56'0 0.0
2015-Aug-26 12:33N 49°10' W 123°56'0 0.0
2015-Aug-26 11:33N 49°10' W 123°56'6 6.5
2015-Aug-26 10:33N 49°14' W 123°48'1312.5
2015-Aug-26 09:33N 49°09' W 123°30'1212.3
2015-Aug-26 08:33N 49°07' W 123°11'6 6.2
2015-Aug-26 07:33N 49°09' W 123°02'0 0.0
2015-Aug-26 06:33N 49°09' W 123°02'9 8.8
2015-Aug-26 05:33N 49°07' W 123°15'1413.6
2015-Aug-26 04:33N 48°54' W 123°18'1313.0
2015-Aug-26 03:33N 48°42' W 123°24'2 1.1
2015-Aug-26 01:33N 48°42' W 123°21'1515.0
2015-Aug-26 00:33N 48°57' W 123°18'1110.8
2015-Aug-25 23:33N 49°07' W 123°10'6 5.6
2015-Aug-25 22:33N 49°09' W 123°02'0 0.0
2015-Aug-25 21:33N 49°09' W 123°02'0 0.0
2015-Aug-25 20:33N 49°09' W 123°02'7 7.2
2015-Aug-25 19:33N 49°08' W 123°13'1515.3
2015-Aug-25 18:33N 49°10' W 123°36'1312.8
2015-Aug-25 17:33N 49°10' W 123°56'0 0.0
2015-Aug-25 16:33N 49°10' W 123°56'0 0.0
2015-Aug-25 15:24N 49°10' W 123°56'0 0.0
2015-Aug-25 14:33N 49°10' W 123°56'0 0.0
2015-Aug-25 13:33N 49°10' W 123°56'  
Track history (hours):
 
Tides and Currents Weather Stations Pressure Air Temp Water Temp Dewpoint Dewpoint Depression Visibility Wind Speed Wind Dir Waves Ship Positions

Carrier Princess

Last reported at 2015-Sep-04 13:27 UTC. Time now 2015-Sep-04 14:29 UTC.
Position N 48°41' W 123°24'.

Length 112 m; draft 3 m.

Type: Cargo ship. MMSI: 316003656.

Date/timePositionNaut miles runAvg speedWind from/ knotsBaromVisibWave heightAir tempDewpointWater temp
2015-Sep-04 13:27N 48°41' W 123°24'0 0.3
2015-Sep-04 12:33N 48°41' W 123°24'1110.6
2015-Sep-04 11:33N 48°52' W 123°19'1212.0
2015-Sep-04 10:33N 49°04' W 123°21'1312.9
2015-Sep-04 09:33N 49°09' W 123°03'0 0.4
2015-Sep-04 08:33N 49°09' W 123°02'1 1.0
2015-Sep-04 07:33N 49°08' W 123°03'7 6.9
2015-Sep-04 06:33N 49°08' W 123°14'1212.0
2015-Sep-04 05:33N 49°09' W 123°32'1413.7
2015-Sep-04 04:33N 49°12' W 123°52'3 3.1
2015-Sep-04 03:33N 49°10' W 123°56'0 0.2
2015-Sep-04 02:33N 49°10' W 123°55'1212.0
2015-Sep-04 01:33N 49°12' W 123°37'1313.5
2015-Sep-04 00:33N 49°06' W 123°18'1110.9
2015-Sep-03 23:33N 49°09' W 123°02'0 0.0
2015-Sep-03 22:33N 49°09' W 123°02'5 5.3
2015-Sep-03 21:33N 49°07' W 123°10'8 7.7
2015-Sep-03 20:33N 49°00' W 123°16'1212.5
2015-Sep-03 19:33N 48°48' W 123°20'7 3.5
2015-Sep-03 17:31N 48°41' W 123°24'0 0.0
2015-Sep-03 15:32N 48°41' W 123°24'0 0.0
2015-Sep-03 14:32N 48°41' W 123°24'0 0.0
2015-Sep-03 13:33N 48°41' W 123°24'1 1.1
2015-Sep-03 12:30N 48°42' W 123°23'9 9.0
2015-Sep-03 11:33N 48°50' W 123°21'1110.7
2015-Sep-03 10:33N 49°01' W 123°19'1110.5
2015-Sep-03 09:33N 49°07' W 123°06'3 2.9
2015-Sep-03 08:33N 49°09' W 123°02'3 2.8
2015-Sep-03 07:33N 49°07' W 123°05'1111.3
2015-Sep-03 06:33N 49°07' W 123°23'1414.3
2015-Sep-03 05:33N 49°12' W 123°43'8 8.4
2015-Sep-03 04:33N 49°10' W 123°56'0 0.0
2015-Sep-03 03:33N 49°10' W 123°56'8 7.6
2015-Sep-03 02:33N 49°13' W 123°45'1212.2
2015-Sep-03 01:33N 49°08' W 123°28'1212.3
2015-Sep-03 00:33N 49°07' W 123°09'5 5.0
2015-Sep-02 23:33N 49°09' W 123°02'5 4.9
2015-Sep-02 22:33N 49°06' W 123°09'1110.7
2015-Sep-02 21:33N 49°07' W 123°25'1514.5
2015-Sep-02 20:33N 49°13' W 123°46'7 3.5
2015-Sep-02 18:28N 49°10' W 123°56'1213.5
2015-Sep-02 17:33N 49°11' W 123°37'1616.2
2015-Sep-02 16:33N 49°08' W 123°13'7 7.2
2015-Sep-02 15:33N 49°09' W 123°02'0 0.0
2015-Sep-02 14:33N 49°09' W 123°02'1312.9
2015-Sep-02 13:33N 49°06' W 123°22'1616.1
2015-Sep-02 12:33N 49°12' W 123°45'8 7.3
2015-Sep-02 11:31N 49°10' W 123°56'0 0.0
2015-Sep-02 10:33N 49°10' W 123°56'1111.1
2015-Sep-02 09:33N 49°12' W 123°39'1616.0
2015-Sep-02 08:33N 49°07' W 123°16'9 9.1
2015-Sep-02 07:33N 49°09' W 123°02'0 0.0
2015-Sep-02 06:33N 49°09' W 123°02'1010.2
2015-Sep-02 05:33N 49°07' W 123°17'1515.0
2015-Sep-02 04:33N 48°51' W 123°20'10 3.4
2015-Sep-02 01:33N 48°42' W 123°23'1111.4
2015-Sep-02 00:33N 48°52' W 123°18'1413.6
2015-Sep-01 23:33N 49°06' W 123°19'1111.1
2015-Sep-01 22:33N 49°09' W 123°02'0 0.0
2015-Sep-01 21:33N 49°09' W 123°02'6 6.0
2015-Sep-01 20:33N 49°07' W 123°11'1110.6
2015-Sep-01 19:33N 49°07' W 123°27'1313.2
2015-Sep-01 18:33N 49°13' W 123°45'7 7.4
2015-Sep-01 17:33N 49°10' W 123°56'0 0.0
2015-Sep-01 16:33N 49°10' W 123°56'0 0.0
2015-Sep-01 15:33N 49°10' W 123°56'0 0.0
2015-Sep-01 14:33N 49°10' W 123°56'0 0.0
2015-Sep-01 13:33N 49°10' W 123°56'0 0.0
2015-Sep-01 12:33N 49°10' W 123°56'0 0.0
2015-Sep-01 11:33N 49°10' W 123°56'5 4.9
2015-Sep-01 10:33N 49°13' W 123°50'1111.0
2015-Sep-01 09:33N 49°11' W 123°34'1313.2
2015-Sep-01 08:34N 49°08' W 123°14'8 7.7
2015-Sep-01 07:33N 49°09' W 123°02'0 0.2
2015-Sep-01 06:33N 49°09' W 123°02'9 9.5
2015-Sep-01 05:33N 49°07' W 123°17'1212.3
2015-Sep-01 04:33N 48°55' W 123°18'1110.9
2015-Sep-01 03:33N 48°44' W 123°23'3 2.9
2015-Sep-01 02:32N 48°41' W 123°24'0 0.0
2015-Sep-01 01:33N 48°41' W 123°24'1111.4
2015-Sep-01 00:33N 48°52' W 123°19'1413.8
2015-Aug-31 23:33N 49°06' W 123°20'1211.7
2015-Aug-31 22:33N 49°09' W 123°02'0 0.0
2015-Aug-31 21:33N 49°09' W 123°02'0 0.1
2015-Aug-31 20:33N 49°09' W 123°02'0 0.0
2015-Aug-31 19:33N 49°09' W 123°02'0 0.0
2015-Aug-31 18:33N 49°09' W 123°02'0 0.0
2015-Aug-31 17:33N 49°09' W 123°02'0 0.0
2015-Aug-31 16:33N 49°09' W 123°02'0 0.0
2015-Aug-31 15:33N 49°09' W 123°02'0 0.0
2015-Aug-31 14:33N 49°09' W 123°02'0 0.0
2015-Aug-31 13:33N 49°09' W 123°02'0 0.0
2015-Aug-31 12:33N 49°09' W 123°02'0 0.0
2015-Aug-31 11:33N 49°09' W 123°02'0 0.0
2015-Aug-31 10:33N 49°09' W 123°02'0 0.0
2015-Aug-31 09:33N 49°09' W 123°02'0 0.0
2015-Aug-31 08:33N 49°09' W 123°02'0 0.0
2015-Aug-31 07:33N 49°09' W 123°02'0 0.0
2015-Aug-31 06:33N 49°09' W 123°02'0 0.0
2015-Aug-31 05:33N 49°09' W 123°02'0 0.0
2015-Aug-31 04:33N 49°09' W 123°02'0 0.0
2015-Aug-31 03:33N 49°09' W 123°02'0 0.0
2015-Aug-31 02:33N 49°09' W 123°02'0 0.0
2015-Aug-31 01:33N 49°09' W 123°02'0 0.0
2015-Aug-31 00:33N 49°09' W 123°02'0 0.0
2015-Aug-30 23:33N 49°09' W 123°02'0 0.0
2015-Aug-30 22:33N 49°09' W 123°02'0 0.0
2015-Aug-30 21:28N 49°09' W 123°02'0 0.0
2015-Aug-30 20:33N 49°09' W 123°02'0 0.0
2015-Aug-30 19:30N 49°09' W 123°02'0 0.0
2015-Aug-30 18:03N 49°09' W 123°02'0 0.0
2015-Aug-30 17:32N 49°09' W 123°02'0 0.0
2015-Aug-30 12:12N 49°09' W 123°02'0 0.0
2015-Aug-30 04:25N 49°09' W 123°02'0 0.0
2015-Aug-30 03:13N 49°09' W 123°02'0 0.0
2015-Aug-30 02:15N 49°09' W 123°02'0 0.0
2015-Aug-30 01:32N 49°09' W 123°02'0 0.0
2015-Aug-30 00:32N 49°09' W 123°02'0 0.0
2015-Aug-29 23:32N 49°09' W 123°02'0 0.0
2015-Aug-29 22:33N 49°09' W 123°02'0 0.0
2015-Aug-29 21:31N 49°09' W 123°02'0 0.1
2015-Aug-29 20:23N 49°09' W 123°02'910.6
2015-Aug-29 19:33N 49°07' W 123°15'1313.3
2015-Aug-29 18:33N 49°11' W 123°35'1413.5
2015-Aug-29 17:33N 49°10' W 123°56'0 0.1
2015-Aug-29 16:22N 49°10' W 123°56'0 0.0
2015-Aug-29 15:32N 49°10' W 123°56'0 0.0
2015-Aug-29 14:31N 49°10' W 123°56'0 0.0
2015-Aug-29 13:33N 49°10' W 123°56'0 0.0
2015-Aug-29 12:33N 49°10' W 123°56'0 0.0
2015-Aug-29 11:32N 49°10' W 123°56'6 6.3
2015-Aug-29 10:32N 49°14' W 123°48'1313.2
2015-Aug-29 09:33N 49°08' W 123°30'1413.7
2015-Aug-29 08:33N 49°07' W 123°09'5 5.0
2015-Aug-29 07:33N 49°09' W 123°02'1 0.6
2015-Aug-29 06:33N 49°08' W 123°03'10 9.9
2015-Aug-29 05:33N 49°06' W 123°18'1211.6
2015-Aug-29 04:33N 48°55' W 123°18'1211.5
2015-Aug-29 03:33N 48°44' W 123°23'3 2.6
2015-Aug-29 02:33N 48°41' W 123°24'1 1.3
2015-Aug-29 01:30N 48°42' W 123°22'1011.0
2015-Aug-29 00:33N 48°52' W 123°19'1312.7
2015-Aug-28 23:33N 49°05' W 123°20'1211.6
2015-Aug-28 22:33N 49°09' W 123°03'1 0.5
2015-Aug-28 21:33N 49°09' W 123°02'4 4.0
2015-Aug-28 20:33N 49°07' W 123°07'1211.7
2015-Aug-28 19:33N 49°07' W 123°25'1212.4
2015-Aug-28 18:33N 49°12' W 123°43'9 8.0
2015-Aug-28 17:29N 49°10' W 123°56'0 0.0
2015-Aug-28 16:29N 49°10' W 123°56'0 0.0
2015-Aug-28 15:33N 49°10' W 123°56'0 0.0
2015-Aug-28 14:33N 49°10' W 123°56'0 0.0
2015-Aug-28 13:30N 49°10' W 123°56'0 0.0
2015-Aug-28 12:32N 49°10' W 123°56'0 0.0
2015-Aug-28 11:33N 49°10' W 123°56'5 5.3
2015-Aug-28 10:33N 49°13' W 123°50'1212.4
2015-Aug-28 09:33N 49°10' W 123°32'1212.2
2015-Aug-28 08:34N 49°08' W 123°13'7 7.3
2015-Aug-28 07:33N 49°09' W 123°02'0 0.3
2015-Aug-28 06:33N 49°09' W 123°02'1010.2
2015-Aug-28 05:33N 49°06' W 123°18'1413.7
2015-Aug-28 04:33N 48°53' W 123°18'1211.6
2015-Aug-28 03:31N 48°41' W 123°24'1 0.6
2015-Aug-28 01:31N 48°42' W 123°23'1313.6
2015-Aug-28 00:33N 48°54' W 123°18'1212.1
2015-Aug-27 23:33N 49°07' W 123°17'1010.2
2015-Aug-27 22:33N 49°09' W 123°02'0 0.0
2015-Aug-27 21:33N 49°09' W 123°02'5 4.9
2015-Aug-27 20:33N 49°06' W 123°09'1212.0
2015-Aug-27 19:33N 49°09' W 123°27'1212.5
2015-Aug-27 18:34N 49°13' W 123°45'8 8.1
2015-Aug-27 17:33N 49°10' W 123°56'0 0.0
2015-Aug-27 16:33N 49°10' W 123°56'0 0.0
2015-Aug-27 15:34N 49°10' W 123°56'0 0.0
2015-Aug-27 14:33N 49°10' W 123°56'0 0.0
2015-Aug-27 13:32N 49°10' W 123°56'0 0.0
2015-Aug-27 12:34N 49°10' W 123°56'0 0.0
2015-Aug-27 11:33N 49°10' W 123°56'6 6.5
2015-Aug-27 10:33N 49°14' W 123°48'1312.7
2015-Aug-27 09:33N 49°09' W 123°29'1212.3
2015-Aug-27 08:34N 49°07' W 123°11'6 6.0
2015-Aug-27 07:33N 49°09' W 123°02'0 0.0
2015-Aug-27 06:34N 49°09' W 123°02'9 9.3
2015-Aug-27 05:33N 49°07' W 123°16'1413.7
2015-Aug-27 04:33N 48°54' W 123°18'1312.7
2015-Aug-27 03:34N 48°42' W 123°24'1 0.3
2015-Aug-27 01:33N 48°42' W 123°24'1211.9
2015-Aug-27 00:33N 48°53' W 123°18'1313.0
2015-Aug-26 23:33N 49°06' W 123°19'1111.2
2015-Aug-26 22:33N 49°09' W 123°02'0 0.1
2015-Aug-26 21:33N 49°09' W 123°02'0 0.0
2015-Aug-26 20:33N 49°09' W 123°02'8 7.5
2015-Aug-26 19:33N 49°08' W 123°13'1413.9
2015-Aug-26 18:34N 49°09' W 123°35'1413.7
2015-Aug-26 17:33N 49°10' W 123°55'0 0.1
2015-Aug-26 16:24N 49°10' W 123°56'0 0.0
2015-Aug-26 15:28N 49°10' W 123°56'0 0.0
2015-Aug-26 14:33N 49°10' W 123°56'0 0.0
2015-Aug-26 13:24N 49°10' W 123°56'0 0.0
2015-Aug-26 12:33N 49°10' W 123°56'0 0.0
2015-Aug-26 11:33N 49°10' W 123°56'6 6.5
2015-Aug-26 10:33N 49°14' W 123°48'1312.5
2015-Aug-26 09:33N 49°09' W 123°30'1212.3
2015-Aug-26 08:33N 49°07' W 123°11'6 6.2
2015-Aug-26 07:33N 49°09' W 123°02'0 0.0
2015-Aug-26 06:33N 49°09' W 123°02'9 8.8
2015-Aug-26 05:33N 49°07' W 123°15'1413.6
2015-Aug-26 04:33N 48°54' W 123°18'1313.0
2015-Aug-26 03:33N 48°42' W 123°24'2 1.1
2015-Aug-26 01:33N 48°42' W 123°21'1515.0
2015-Aug-26 00:33N 48°57' W 123°18'1110.8
2015-Aug-25 23:33N 49°07' W 123°10'6 5.6
2015-Aug-25 22:33N 49°09' W 123°02'0 0.0
2015-Aug-25 21:33N 49°09' W 123°02'0 0.0
2015-Aug-25 20:33N 49°09' W 123°02'7 7.2
2015-Aug-25 19:33N 49°08' W 123°13'1515.3
2015-Aug-25 18:33N 49°10' W 123°36'1312.8
2015-Aug-25 17:33N 49°10' W 123°56'0 0.0
2015-Aug-25 16:33N 49°10' W 123°56'0 0.0
2015-Aug-25 15:24N 49°10' W 123°56'0 0.0
2015-Aug-25 14:33N 49°10' W 123°56'0 0.0
2015-Aug-25 13:33N 49°10' W 123°56'  

Dump ship's entire track history